Pagina principale
METAR-TAF:

METAR-TAF

Aeroporti :

Margarita, Venezuela

latitudine: 10-55N, longitudine: 063-59W, altezza: 23 m

METAR: mancante

Ora: 04:52 (08:52 UTC)

Previsione

Il bollettino è stato emesso 10 ore e 52 minuti fa, alle 22:00 UTC
Previsione valida dal 26 alle 00 UTC al 27 alle 00 UTC
Vento 2 kt da est/sud-est
Visibilità 10 km o più
Nubi sparse ad un'altezza di 1300 ft
Temporaneamente
dal 26 alle 02 UTC al 26 alle 06 UTC
Vento 5 kt da nord/nord-est
Visibilità 10 km o più
Nubi sparse ad un'altezza di 1600 ft
Nubi sparse ad un'altezza di 4000 ft

TAF: SVMG 252200Z 2600/2700 11002KT 9999 SCT013 TX35/2618Z TN22/2608Z TEMPO 2602/2606 02005KT 9999 SCT016 SCT040

Osservazioni e previsioni meteorologiche di più di 4000 aeroporti (messaggi METAR e TAF).

Le stazioni disponibili sono rappresentate dai dischi gialli e rossi sulla carta.

Puntare il mouse per vedere il nome della stazione.

Clicca sopra per visualizzare le osservazioni e previsioni meteorologiche.

Per cambiare la mappa : fare clic sui pulsanti verdi con una croce nera per ingrandire, il pulsante verde con un trattino per diminuire, o sulla freccia verde per le mappe adiacenti.


METAR-TAF: